Meteo4 di Emilio Bellavite Il primo osservatorio Meteo di Verona  
 
giovedì 18 ottobre 2018
 
 
dati in tempo reale
Di seguito i dati in tempo reale delle stazioni on line, suddivise per regione, della rete di Meteo4. Cliccando sul link della stazione, ove presente, si accederà al sito web personale.
Stazioni online
Regione ABRUZZO
Località Giorno Ora Temp. Umid. Relat. Dew Point Press. Atm. Velocità Vento Direz. Vento Precip. Temp.
Min
Temp.
Max
San Salvo3 (CH) 18/10/18 01.29 18.3 °C 93 % 17.1 °C 1013.7 hPa 0.0 Km/h NW 0.0 mm  18.1 °C 18.6 °C
Vasto (CH) 17/10/18 21.23 20.4 °C 10 % -12.2 °C 1015.3 hPa 0.0 Km/h --- 0.0 mm  17.7 °C 21.3 °C
 
 
Regione BASILICATA
Località Giorno Ora Temp. Umid. Relat. Dew Point Press. Atm. Velocità Vento Direz. Vento Precip. Temp.
Min
Temp.
Max
Miglionico (MT) 18/10/18 01.20 15.7 °C 98 % 15.4 °C 1013.6 hPa 0.0 Km/h --- 0.2 mm  15.6 °C 15.9 °C
 
 
Regione CALABRIA
Località Giorno Ora Temp. Umid. Relat. Dew Point Press. Atm. Velocità Vento Direz. Vento Precip. Temp.
Min
Temp.
Max
Bisignano (CS) 18/10/18 01.28 17.1 °C 89 % 15.3 °C 1013.3 hPa 0.0 Km/h SE 0.0 mm  17.1 °C 17.5 °C
Savelli (KR) 18/10/18 01.28 13.2 °C 93 % 12.1 °C 1016.2 hPa 0.6 Km/h S 0.0 mm  12.9 °C 13.3 °C
 
 
Regione CAMPANIA
Località Giorno Ora Temp. Umid. Relat. Dew Point Press. Atm. Velocità Vento Direz. Vento Precip. Temp.
Min
Temp.
Max
 
 
Regione EMILIA ROMAGNA
Località Giorno Ora Temp. Umid. Relat. Dew Point Press. Atm. Velocità Vento Direz. Vento Precip. Temp.
Min
Temp.
Max
Bellaria Igea Marina (RN) 18/10/18 01.28 16.2 °C 94 % 15.3 °C 1017.2 hPa 9.7 Km/h W 0.0 mm  16.1 °C 16.2 °C
Bellaria Igea Marina2 (RN) 18/10/18 01.28 16.4 °C 96 % 15.7 °C 1016.7 hPa 8.0 Km/h WNW 0.0 mm  16.2 °C 16.4 °C
Bellaria Igea Marina3 (RN) 18/10/18 01.21 26.5 °C 60 % 18.0 °C 1024.1 hPa 40.9 Km/h E 4.3 mm  15.6 °C 26.7 °C
Carpi (MO) 18/10/18 01.28 15.9 °C 92 % 14.6 °C 1017.3 hPa 0.0 Km/h SE 0.0 mm  15.9 °C 16.2 °C
Filo di Argenta (FE) 18/10/18 01.25 14.7 °C 93 % 13.5 °C 1018.1 hPa 5.2 Km/h W 0.0 mm  14.7 °C 14.8 °C
Masiera di Bagnacavallo (RA) 18/10/18 01.25 15.9 °C 93 % 14.8 °C 1016.0 hPa 4.0 Km/h N 0.0 mm  15.8 °C 15.9 °C
Migliarino (FE) 18/10/18 01.29 16.3 °C 91 % 14.8 °C 1016.6 hPa 1.1 Km/h N 0.0 mm  16.3 °C 17.0 °C
Ponte San Pellegrino (MO) 18/10/18 01.27 15.6 °C 98 % 15.3 °C 1020.7 hPa 0.0 Km/h SW 0.0 mm  15.6 °C 15.7 °C
Rimini (RN) 18/10/18 01.20 16.6 °C 90 % 14.9 °C 1017.8 hPa 0.0 Km/h W 0.0 mm  16.5 °C 16.6 °C
Rimini Zona Palas (RN) 18/10/18 01.15 16.3 °C 94 % 15.6 °C 1017.8 hPa 4.8 Km/h W 0.0 mm  16.3 °C 16.3 °C
Stiore - Monteveglio (BO) 18/10/18 01.29 14.9 °C 95 % 14.1 °C 1014.9 hPa 4.8 Km/h SE 0.0 mm  14.8 °C 14.9 °C
 
 
Regione FRIULI V.G.
Località Giorno Ora Temp. Umid. Relat. Dew Point Press. Atm. Velocità Vento Direz. Vento Precip. Temp.
Min
Temp.
Max
Budoia (PN) 18/10/18 01.15 17.3 °C 85 % 14.8 °C 1017.3 hPa 6.4 Km/h NW 1.4 mm  16.9 °C 17.3 °C
Campoformido (UD) 18/10/18 01.28 17.2 °C 77 % 13.1 °C 1017.5 hPa 3.2 Km/h N 0.0 mm  16.9 °C 17.2 °C
Codroipo (UD) 18/10/18 01.28 17.1 °C 76 % 12.8 °C 1016.7 hPa 4.9 Km/h NNE 0.0 mm  16.9 °C 17.1 °C
Fogliano Redipuglia (GO) 18/10/18 21.28 16.5 °C 87 % 14.3 °C 1016.8 hPa 4.7 Km/h NW 0.6 mm  15.1 °C 21.0 °C
Fontanafredda (PN) 18/10/18 01.29 15.3 °C 99 % 15.2 °C 1016.8 hPa 0.0 Km/h NW 0.0 mm  15.3 °C 15.8 °C
Gradisca d'Isonzo (GO) 18/10/18 01.28 15.6 °C 91 % 14.1 °C 1017.5 hPa 0.0 Km/h E 0.0 mm  15.6 °C 15.6 °C
Ovaro loc. Liariis (UD) 18/10/18 01.15 12.1 °C 95 % 11.3 °C 1020.6 hPa 0.0 Km/h --- 0.0 mm  12.0 °C 12.1 °C
Pordenone (PN) 18/10/18 01.20 16.3 °C 89 % 14.5 °C 1017.1 hPa 0.0 Km/h --- 0.0 mm  16.3 °C 16.9 °C
Sacile (PN) 18/10/18 01.15 15.8 °C 86 % 13.5 °C 1017.5 hPa 0.0 Km/h WNW 0.0 mm  15.8 °C 16.8 °C
Sacile2 (PN) 18/10/18 01.15 15.8 °C 91 % 14.3 °C 1018.6 hPa 0.0 Km/h N 0.0 mm  15.8 °C 17.0 °C
Staranzano (GO) 18/10/18 01.10 16.4 °C 88 % 14.4 °C 1017.8 hPa 0.0 Km/h NNW 0.0 mm  16.4 °C 16.7 °C
 
 
Regione LAZIO
Località Giorno Ora Temp. Umid. Relat. Dew Point Press. Atm. Velocità Vento Direz. Vento Precip. Temp.
Min
Temp.
Max
Acquapendente (VT) 18/10/18 01.28 15.4 °C 94 % 14.4 °C 1015.9 hPa 0.0 Km/h WSW 5.2 mm  15.3 °C 16.4 °C
Ardea (RM) 18/10/18 01.27 17.9 °C 85 % 15.3 °C 1004.2 hPa 2.0 Km/h NE 0.0 mm  17.9 °C 18.7 °C
Capodimonte (VT) 18/10/18 01.25 17.9 °C 88 % 15.9 °C 1015.8 hPa 5.9 Km/h NE 0.0 mm  17.9 °C 18.2 °C
Caprarola Centro Storico (VT) 18/10/18 01.28 16.2 °C 82 % 13.1 °C 1015.0 hPa 4.6 Km/h WSW 0.0 mm  16.2 °C 16.7 °C
Civita Castellana (VT) 18/10/18 01.29 17.2 °C 84 % 14.5 °C 1014.7 hPa 4.6 Km/h N 0.0 mm  17.2 °C 18.1 °C
Marta (VT) 18/10/18 01.28 17.9 °C 86 % 15.5 °C 1013.5 hPa 15.8 Km/h N 0.0 mm  17.9 °C 18.2 °C
Pomezia (RM) 18/10/18 01.28 20.1 °C 79 % 16.3 °C 1012.8 hPa 0.0 Km/h N 0.0 mm  20.1 °C 20.4 °C
Ronciglione Centro (VT) 18/10/18 01.25 16.6 °C 86 % 14.2 °C 1015.0 hPa 0.0 Km/h NNW 0.0 mm  16.4 °C 16.8 °C
S. Lorenzo Nuovo (VT) 18/10/18 01.28 15.2 °C 90 % 13.7 °C 1013.5 hPa 11.2 Km/h N 0.0 mm  15.1 °C 15.6 °C
Tuscania (VT) 17/10/18 11.00 18.3 °C 90 % 16.7 °C 1017.2 hPa 0.9 Km/h NE 0.4 mm  16.7 °C 18.3 °C
Valentano (VT) 18/10/18 01.28 15.0 °C 93 % 13.9 °C 1013.5 hPa 1.7 Km/h NE 0.3 mm  15.0 °C 15.2 °C
Viterbo Santa Barbara (VT) 17/10/18 22.06 17.7 °C 91 % 16.2 °C 1014.9 hPa 0.0 Km/h NE 0.2 mm  15.4 °C 21.1 °C
Vitorchiano Pallone (VT) 17/10/18 18.50 18.7 °C 86 % 16.3 °C 1013.3 hPa 4.8 Km/h SW 0.0 mm  15.6 °C 20.9 °C
 
 
Regione LIGURIA
Località Giorno Ora Temp. Umid. Relat. Dew Point Press. Atm. Velocità Vento Direz. Vento Precip. Temp.
Min
Temp.
Max
Arenzano (GE) 18/10/18 01.28 19.2 °C 68 % 13.2 °C 1015.5 hPa 46.7 Km/h NNW 0.0 mm  18.7 °C 19.3 °C
Genova Erzelli (GE) 18/10/18 01.23 18.1 °C 76 % 13.8 °C 1014.9 hPa 14.5 Km/h N 0.0 mm  18.1 °C 18.2 °C
Loano (SV) 18/10/18 01.20 19.9 °C 65 % 13.1 °C 1014.9 hPa 5.0 Km/h W 0.0 mm  19.7 °C 20.0 °C
Moneglia loc. Casale (GE) 18/10/18 01.28 18.2 °C 72 % 13.1 °C 1016.3 hPa 9.7 Km/h NE 0.0 mm  18.2 °C 18.3 °C
Moneglia loc. La Secca (GE) 18/10/18 01.29 20.9 °C 65 % 14.1 °C 1014.7 hPa 1.6 Km/h WSW 0.0 mm  20.8 °C 21.0 °C
Ortonovo (SP) 18/10/18 01.29 18.5 °C 70 % 12.9 °C 1012.3 hPa 12.6 Km/h E 0.0 mm  18.4 °C 18.6 °C
Varese Ligure (SP) 18/10/18 01.28 17.4 °C 10 % -14.5 °C 1005.2 hPa 9.0 Km/h NO 0.0 mm  16.4 °C 18.3 °C
 
 
Regione LOMBARDIA
Località Giorno Ora Temp. Umid. Relat. Dew Point Press. Atm. Velocità Vento Direz. Vento Precip. Temp.
Min
Temp.
Max
Bernate Ticino fraz. Casate (MI) 18/10/18 01.27 12.7 °C 87 % 10.6 °C 1015.3 hPa 0.0 Km/h NNW 0.0 mm  12.7 °C 13.0 °C
Calcinato (BS) 18/10/18 01.28 14.9 °C 82 % 11.8 °C 1019.5 hPa 0.0 Km/h ESE 0.0 mm  14.8 °C 15.4 °C
Cassano Magnago (VA) 18/10/18 01.20 13.9 °C 90 % 12.3 °C 1017.2 hPa 0.0 Km/h S 0.0 mm  13.9 °C 15.0 °C
Costa Volpino (BG) 18/10/18 01.20 13.6 °C 73 % 8.9 °C 1015.1 hPa 0.9 Km/h N 0.0 mm  13.5 °C 14.6 °C
Dorno (PV) 18/10/18 01.29 15.8 °C 91 % 14.3 °C 1018.0 hPa 0.0 Km/h NE 0.0 mm  15.8 °C 16.1 °C
Esine (BS) 18/10/18 01.28 13.2 °C 84 % 10.5 °C 1017.5 hPa 0.0 Km/h ENE 0.0 mm  13.2 °C 14.1 °C
Gaggiano (MI) 18/10/18 01.28 14.3 °C 90 % 12.7 °C 1017.6 hPa 1.6 Km/h SE 0.0 mm  14.3 °C 15.2 °C
Laxolo (BG) 18/10/18 01.26 11.9 °C 99 % 11.7 °C 1016.1 hPa 0.0 Km/h W 0.0 mm  10.5 °C 18.0 °C
Lesmo (MB) 12/10/18 09.45 16.3 °C 93 % 15.1 °C 1026.2 hPa 0.0 Km/h --- 0.0 mm  14.3 °C 16.3 °C
Lovere (BG) 18/10/18 01.18 15.0 °C 59 % 0.0 °C 1019.0 hPa 4.3 Km/h WSW 0.0 mm  15.0 °C 15.9 °C
Malnate San Salvatore (VA) 18/10/18 01.20 12.8 °C 94 % 11.9 °C 1018.8 hPa 0.0 Km/h --- 0.0 mm  12.8 °C 13.9 °C
Mezzana Bigli (PV) 18/10/18 01.25 14.7 °C 90 % 13.1 °C 1017.1 hPa 0.0 Km/h NW 0.0 mm  14.7 °C 15.1 °C
Rivalta sul Mincio (MN) 18/10/18 01.22 16.1 °C 92 % 14.8 °C 1017.7 hPa 0.0 Km/h SW 0.2 mm  16.1 °C 16.4 °C
Vigevano (PV) 12/10/18 22.43 17.6 °C 87 % 15.4 °C 1024.1 hPa 0.0 Km/h SW 0.0 mm  15.1 °C 23.3 °C
 
 
Regione MARCHE
Località Giorno Ora Temp. Umid. Relat. Dew Point Press. Atm. Velocità Vento Direz. Vento Precip. Temp.
Min
Temp.
Max
Ancona (AN) 18/10/18 01.20 16.1 °C 96 % 15.4 °C 1017.9 hPa 0.0 Km/h WSW 0.0 mm  16.1 °C 16.6 °C
Ancona loc. Brecce Bianche (AN) 18/10/18 01.18 15.9 °C 88 % 13.9 °C 1021.9 hPa 0.0 Km/h NNW 0.0 mm  15.9 °C 16.3 °C
Barbara (AN) 18/10/18 01.28 15.4 °C 88 % 13.4 °C 1019.8 hPa 0.0 Km/h NW 0.0 mm  15.3 °C 15.4 °C
Ca' Gallo (PU) 18/10/18 00.19 16.0 °C 95 % 15.2 °C 1013.4 hPa 0.0 Km/h W 0.0 mm  16.0 °C 16.0 °C
Marina di Montemarciano (AN) 18/10/18 01.25 16.3 °C 92 % 15.0 °C 1017.9 hPa 0.0 Km/h --- 0.0 mm  16.0 °C 16.3 °C
Montelabbate (PU) 17/10/18 18.53 16.1 °C 93 % 14.9 °C 1012.4 hPa 0.0 Km/h SSE 0.5 mm  16.0 °C 18.1 °C
San Benedetto del Tronto (AP) 18/10/18 01.00 18.8 °C 95 % 18.0 °C 1015.5 hPa 1.9 Km/h N 0.0 mm  18.8 °C 19.2 °C
 
 
Regione MOSELLE
Località Giorno Ora Temp. Umid. Relat. Dew Point Press. Atm. Velocità Vento Direz. Vento Precip. Temp.
Min
Temp.
Max
Seremange Erzange (Moselle) 18/10/18 01.28 14.2 °C 80 % 10.8 °C 1020.0 hPa 3.2 Km/h WNW 0.0 mm  12.7 °C 14.1 °C
 
 
Regione PIEMONTE
Località Giorno Ora Temp. Umid. Relat. Dew Point Press. Atm. Velocità Vento Direz. Vento Precip. Temp.
Min
Temp.
Max
Castelferro (AL) 18/10/18 01.28 15.3 °C 92 % 14.0 °C 1018.2 hPa 4.8 Km/h WNW 0.0 mm  15.2 °C 15.3 °C
Monasterolo Torinese (TO) 18/10/18 01.20 13.7 °C 84 % 11.0 °C 1014.9 hPa 0.0 Km/h --- 0.0 mm  13.6 °C 14.4 °C
Mongrando San Michele (BI) 18/10/18 01.20 13.4 °C 68 % 7.7 °C 1018.1 hPa 0.0 Km/h --- 0.0 mm  13.4 °C 13.8 °C
Muzzano (BI) 18/10/18 01.20 14.6 °C 81 % 11.4 °C 1016.7 hPa 3.2 Km/h WNW 0.0 mm  14.6 °C 14.9 °C
Nichelino (TO) 18/10/18 01.20 15.1 °C 94 % 14.2 °C 1020.1 hPa 0.0 Km/h NW 0.0 mm  15.0 °C 15.1 °C
Novara (NO) 18/10/18 01.20 13.1 °C 87 % 10.9 °C 1017.6 hPa 0.0 Km/h --- 0.0 mm  13.0 °C 13.9 °C
Parella (TO) 12/10/18 11.09 19.0 °C 78 % 15.1 °C 1024.9 hPa 0.0 Km/h WSW 0.3 mm  13.1 °C 19.0 °C
Pecetto Torinese (TO) 18/10/18 01.19 13.7 °C 91 % 12.3 °C 1017.8 hPa 4.8 Km/h N 0.0 mm  13.4 °C 13.7 °C
Pila Valsesia (VC) 18/10/18 01.20 11.7 °C 92 % 10.5 °C 1016.7 hPa 0.0 Km/h --- 0.0 mm  11.7 °C 12.2 °C
Piovà Massaia (AT) 18/10/18 01.28 13.0 °C 96 % 12.4 °C 1016.8 hPa 1.4 Km/h NW 0.0 mm  13.0 °C 14.0 °C
Pozzolo Formigaro (AL) 18/10/18 01.19 14.0 °C 96 % 13.4 °C 1018.9 hPa 0.0 Km/h WSW 0.0 mm  13.9 °C 14.2 °C
Pray (BI) 18/10/18 01.28 12.8 °C 95 % 12.0 °C 1018.1 hPa 0.0 Km/h --- 0.0 mm  12.8 °C 13.7 °C
Soriso (NO) 18/10/18 01.20 13.9 °C 90 % 12.3 °C 1018.4 hPa 0.0 Km/h WNW 0.0 mm  13.9 °C 15.1 °C
Torino Regio Parco (TO) 18/10/18 01.29 15.3 °C 90 % 13.6 °C 1019.3 hPa 0.0 Km/h SW 0.0 mm  15.3 °C 15.9 °C
Valenza (AL) 18/10/18 01.20 14.3 °C 92 % 13.1 °C 1017.4 hPa 0.0 Km/h W 0.0 mm  14.3 °C 14.6 °C
Viozene Toria (CN) 18/10/18 01.29 9.4 °C 96 % 8.8 °C 1013.8 hPa 2.0 Km/h N 0.0 mm  9.2 °C 9.5 °C
 
 
Regione PUGLIA
Località Giorno Ora Temp. Umid. Relat. Dew Point Press. Atm. Velocità Vento Direz. Vento Precip. Temp.
Min
Temp.
Max
Acquaviva delle Fonti (BA) 18/10/18 01.28 14.7 °C 95 % 13.9 °C 1016.0 hPa 0.0 Km/h S 0.0 mm  14.1 °C 15.2 °C
Taranto (TA) 18/10/18 01.25 18.1 °C 87 % 15.9 °C 1012.1 hPa 4.3 Km/h E 0.0 mm  18.1 °C 18.7 °C
Vieste (FG) 18/10/18 01.29 17.5 °C 80 % 14.0 °C 1017.8 hPa 1.5 Km/h SSE 0.0 mm  17.4 °C 17.7 °C
 
 
Regione SARDEGNA
Località Giorno Ora Temp. Umid. Relat. Dew Point Press. Atm. Velocità Vento Direz. Vento Precip. Temp.
Min
Temp.
Max
Bitti (NU) 18/10/18 01.28 16.5 °C 91 % 15.1 °C 1010.8 hPa 0.0 Km/h --- 0.0 mm  -24.6 °C 16.5 °C
Bonorva (SS) 18/10/18 01.20 17.3 °C 89 % 15.4 °C 1009.8 hPa 1.6 Km/h N 0.0 mm  17.0 °C 17.6 °C
Borore (NU) 18/10/18 01.29 17.3 °C 92 % 16.0 °C 1009.8 hPa 16.1 Km/h ENE 0.2 mm  17.1 °C 17.4 °C
Iglesias (CI) 18/10/18 01.29 16.6 °C 90 % 15.0 °C 1011.0 hPa 3.2 Km/h NNE 0.4 mm  16.5 °C 17.4 °C
Oristano (OR) 18/10/18 01.29 18.7 °C 87 % 16.5 °C 1009.1 hPa 0.0 Km/h N 0.2 mm  18.6 °C 19.0 °C
Orosei (NU) 18/10/18 01.25 20.4 °C 94 % 19.4 °C 1011.2 hPa 0.0 Km/h ENE 0.0 mm  20.4 °C 20.9 °C
Sinnai (CA) 17/10/18 23.40 19.6 °C 72 % 14.4 °C 1010.1 hPa 3.2 Km/h ENE 31.8 mm  17.7 °C 22.9 °C
 
 
Regione SICILIA
Località Giorno Ora Temp. Umid. Relat. Dew Point Press. Atm. Velocità Vento Direz. Vento Precip. Temp.
Min
Temp.
Max
Barcellona P.G. Centro (ME) 18/10/18 01.28 21.4 °C 72 % 16.2 °C 1011.5 hPa 6.4 Km/h NNW 0.0 mm  21.4 °C 22.3 °C
Barcellona Pozzo di Gotto (ME) 18/10/18 01.28 22.8 °C 64 % 15.7 °C 1010.8 hPa 0.2 Km/h NW 0.0 mm  21.9 °C 23.0 °C
Brolo c/da Parrazzà (ME) 18/10/18 01.25 21.4 °C 63 % 14.1 °C 1011.1 hPa 6.0 Km/h SSE 0.0 mm  21.2 °C 21.7 °C
Buccheri (SR) 17/10/18 20.14 14.7 °C 99 % 14.5 °C 1016.2 hPa 26.3 Km/h ESE 0.3 mm  12.3 °C 17.6 °C
Caltabellotta (AG) 18/10/18 01.20 16.3 °C 84 % 13.6 °C 1009.8 hPa 6.0 Km/h NNE 0.0 mm  16.2 °C 16.7 °C
Cammarata (AG) 18/10/18 01.28 15.9 °C 75 % 11.5 °C 1012.6 hPa 6.1 Km/h N 0.0 mm  15.7 °C 15.9 °C
Cefalù (PA) 18/10/18 01.28 22.3 °C 60 % 14.2 °C 1006.7 hPa 4.8 Km/h NE 0.0 mm  21.9 °C 22.3 °C
Mirabella Imbaccari (CT) 18/10/18 01.26 17.3 °C 96 % 16.7 °C 1011.9 hPa 16.7 Km/h ENE 0.0 mm  17.3 °C 17.6 °C
Pace del Mela (ME) 18/10/18 01.29 21.0 °C 63 % 13.7 °C 1012.4 hPa 11.2 Km/h SE 0.0 mm  21.0 °C 21.0 °C
Pedara (CT) 18/10/18 01.28 18.0 °C 98 % 17.7 °C 935.0 hPa 8.7 Km/h NW 0.0 mm  18.0 °C 18.4 °C
Piraino contr. Fiumara (ME) 18/10/18 01.20 19.2 °C 77 % 15.0 °C 1011.6 hPa 0.0 Km/h ESE 0.0 mm  19.1 °C 19.8 °C
San Cataldo (CL) 18/10/18 01.29 16.6 °C 82 % 13.5 °C 1010.5 hPa 23.9 Km/h E 0.0 mm  16.5 °C 16.7 °C
San Giovanni la Punta Trappeto (CT) 18/10/18 01.25 18.9 °C 90 % 17.2 °C 1014.8 hPa 8.0 Km/h ENE 0.0 mm  18.9 °C 19.0 °C
 
 
Regione TOSCANA
Località Giorno Ora Temp. Umid. Relat. Dew Point Press. Atm. Velocità Vento Direz. Vento Precip. Temp.
Min
Temp.
Max
Bientina (PI) 18/10/18 01.28 17.4 °C 80 % 13.9 °C 1014.5 hPa 0.0 Km/h NE 0.0 mm  17.4 °C 17.7 °C
Carmignano loc. Seano (PO) 18/10/18 01.29 18.6 °C 78 % 14.6 °C 1015.6 hPa 1.7 Km/h SW 0.0 mm  18.4 °C 18.9 °C
Castelnuovo V.C. (PI) 18/10/18 01.22 14.8 °C 92 % 13.5 °C 1015.2 hPa 0.6 Km/h WNW 0.0 mm  14.7 °C 14.9 °C
Castiglione della Pescaia Vaticino (GR) 18/10/18 01.19 18.2 °C 72 % 13.1 °C 1006.7 hPa 0.0 Km/h WSW 0.0 mm  18.2 °C 18.5 °C
Isola d'Elba Marina di Campo (LI) 18/10/18 01.15 17.7 °C 94 % 16.7 °C 558.5 hPa 0.0 Km/h SE 0.0 mm  17.6 °C 19.1 °C
Montespertoli (FI) 18/10/18 01.19 17.1 °C 79 % 13.4 °C 1017.6 hPa 3.7 Km/h N 0.0 mm  16.8 °C 17.1 °C
Montopoli in val d'Arno Loc. Capanne (PI) 18/10/18 01.15 17.4 °C 83 % 14.5 °C 1015.4 hPa 4.2 Km/h ENE 0.0 mm  17.0 °C 17.4 °C
Musigliano (PI) 18/10/18 01.27 17.8 °C 78 % 13.9 °C 1014.7 hPa 1.0 Km/h SE 0.0 mm  17.8 °C 19.1 °C
Pisa zona I Passi (PI) 18/10/18 01.29 18.0 °C 70 % 12.4 °C 1015.3 hPa 6.8 Km/h SSW 0.0 mm  18.0 °C 18.8 °C
Reggello (FI) 18/10/18 01.28 16.3 °C 82 % 13.2 °C 1018.1 hPa 0.0 Km/h SE 0.0 mm  15.7 °C 16.3 °C
Torri (FI) 16/10/18 17.45 18.8 °C 75 % 14.3 °C 1017.5 hPa 0.0 Km/h --- 0.0 mm  12.3 °C 23.1 °C
Torrita di Siena (SI) 18/10/18 01.20 15.9 °C 90 % 14.3 °C 1016.6 hPa 0.0 Km/h --- 0.0 mm  15.8 °C 16.3 °C
 
 
Regione TRENTINO A. A.
Località Giorno Ora Temp. Umid. Relat. Dew Point Press. Atm. Velocità Vento Direz. Vento Precip. Temp.
Min
Temp.
Max
Ala (TN) 18/10/18 01.28 14.1 °C 80 % 10.7 °C 1017.6 hPa 0.0 Km/h ESE 0.0 mm  14.2 °C 14.8 °C
Avio (TN) 18/10/18 01.28 16.2 °C 73 % 11.4 °C 1017.7 hPa 0.0 Km/h SSE 0.0 mm  15.4 °C 16.4 °C
Besenello (TN) 18/10/18 01.28 13.6 °C 82 % 10.6 °C 1019.2 hPa 6.1 Km/h W 0.0 mm  12.9 °C 14.1 °C
Bolognano di Arco (TN) 18/10/18 01.28 13.6 °C 85 % 11.1 °C 1018.4 hPa 0.0 Km/h N 0.0 mm  13.6 °C 14.1 °C
Borgo Valsugana (TN) 18/10/18 01.19 12.3 °C 88 % 10.4 °C 1017.8 hPa 0.0 Km/h NW 0.0 mm  12.3 °C 13.6 °C
Fiavè loc. Ballino (TN) 18/10/18 01.28 10.7 °C 89 % 8.9 °C 1018.2 hPa 1.8 Km/h NNE 0.0 mm  10.4 °C 11.3 °C
Gardolo (TN) 18/10/18 01.28 11.1 °C 86 % 8.8 °C 1019.2 hPa 0.0 Km/h NNE 0.0 mm  12.0 °C 13.8 °C
Isera loc. Reviano (TN) 18/10/18 01.29 14.2 °C 77 % 10.2 °C 1017.5 hPa 3.9 Km/h NE 0.0 mm  13.5 °C 14.2 °C
Lavis (TN) 18/10/18 00.25 11.5 °C 84 % 8.9 °C 1019.0 hPa 4.8 Km/h WSW 0.0 mm  11.5 °C 12.5 °C
Margone (TN) 18/10/18 01.25 11.9 °C 78 % 8.2 °C 1020.8 hPa 3.7 Km/h N 0.0 mm  10.9 °C 11.9 °C
Martignano (TN) 18/10/18 01.20 13.1 °C 82 % 10.1 °C 1017.4 hPa 0.0 Km/h --- 0.0 mm  13.1 °C 14.7 °C
Massone di Arco (TN) 18/10/18 01.28 14.3 °C 80 % 10.9 °C 1017.3 hPa 5.0 Km/h N 0.0 mm  14.1 °C 14.8 °C
Miola di Piné (TN) 18/10/18 01.28 9.7 °C 90 % 8.1 °C 1019.7 hPa 3.2 Km/h E 0.0 mm  9.7 °C 11.3 °C
Padergnone (TN) 18/10/18 01.15 11.7 °C 87 % 9.6 °C 1019.0 hPa 0.0 Km/h N 0.0 mm  11.7 °C 14.2 °C
Taio Mollaro (TN) 18/10/18 01.28 10.3 °C 88 % 8.4 °C 1020.9 hPa 0.0 Km/h NNE 0.0 mm  5.4 °C 19.9 °C
Trento (TN) 18/10/18 01.29 14.8 °C 75 % 10.4 °C 1018.3 hPa 6.4 Km/h NE 0.0 mm  14.8 °C 16.0 °C
Vattaro fraz. Pian dei Pradi (TN) 18/10/18 01.29 10.2 °C 93 % 9.1 °C 1019.9 hPa 0.0 Km/h NNW 0.0 mm  10.2 °C 11.5 °C
 
 
Regione UMBRIA
Località Giorno Ora Temp. Umid. Relat. Dew Point Press. Atm. Velocità Vento Direz. Vento Precip. Temp.
Min
Temp.
Max
Castiglione del Lago (PG) 18/10/18 01.20 17.1 °C 88 % 15.1 °C 1017.6 hPa 0.0 Km/h --- 0.0 mm  17.1 °C 17.7 °C
Foligno (PG) 18/10/18 01.10 18.7 °C 73 % 13.8 °C 1014.9 hPa 8.0 Km/h ENE 0.0 mm  18.7 °C 19.3 °C
Orvieto (TR) 17/10/18 23.01 17.6 °C 82 % 14.5 °C 1014.4 hPa 0.0 Km/h WNW 0.0 mm  14.1 °C 22.9 °C
Perugia San Mariano (PG) 18/10/18 01.15 16.7 °C 81 % 13.4 °C 1016.3 hPa 0.0 Km/h N 0.0 mm  16.6 °C 17.2 °C
 
 
Regione VALLE DAOSTA
Località Giorno Ora Temp. Umid. Relat. Dew Point Press. Atm. Velocità Vento Direz. Vento Precip. Temp.
Min
Temp.
Max
 
 
Regione VENETO
Località Giorno Ora Temp. Umid. Relat. Dew Point Press. Atm. Velocità Vento Direz. Vento Precip. Temp.
Min
Temp.
Max
Abano (PD) 18/10/18 01.25 16.2 °C 89 % 14.4 °C 1017.5 hPa 0.0 Km/h --- 0.0 mm  16.0 °C 16.2 °C
Alleghe (BL) 18/10/18 01.28 8.6 °C 83 % 5.9 °C 1006.6 hPa 0.0 Km/h ENE 0.0 mm  8.6 °C 10.4 °C
Alleghe Lago (BL) 18/10/18 01.28 8.7 °C 88 % 6.8 °C 1020.1 hPa 0.0 Km/h N 0.0 mm  8.7 °C 10.3 °C
Arquà Polesine (RO) 18/10/18 01.28 15.8 °C 91 % 14.3 °C 1018.7 hPa 0.0 Km/h WNW 0.0 mm  15.8 °C 16.7 °C
Arzignano loc. Castello (VI) 17/10/18 22.45 16.5 °C 83 % 13.6 °C 1016.8 hPa 0.0 Km/h NNW 0.0 mm  14.9 °C 24.2 °C
Arzignano San Bortolo (VI) 14/10/18 02.40 17.5 °C 60 % 9.6 °C 1019.6 hPa 3.2 Km/h NNW 0.0 mm  17.4 °C 18.7 °C
Arzignano Tezze (VI) 18/10/18 01.19 13.9 °C 95 % 13.2 °C 1017.0 hPa 0.0 Km/h NW 0.0 mm  13.9 °C 14.9 °C
Badia Calavena loc. San Valentino (VR) 18/10/18 01.28 12.9 °C 85 % 10.4 °C 1015.0 hPa 6.4 Km/h NNW 0.0 mm  12.7 °C 13.3 °C
Beccacivetta (VR) 16/10/18 01.25 13.7 °C 82 % 10.7 °C 1019.9 hPa 0.0 Km/h E 0.0 mm  13.3 °C 13.7 °C
Belluno Castion (BL) 18/10/18 01.00 12.6 °C 92 % 11.3 °C 1018.1 hPa 0.0 Km/h --- 0.0 mm  12.6 °C 12.8 °C
Brendola (VI) 18/10/18 01.28 15.7 °C 99 % 15.5 °C 1003.1 hPa 0.0 Km/h NE 0.0 mm  15.7 °C 17.4 °C
Bresega (PD) 18/10/18 01.28 16.4 °C 93 % 15.6 °C 1017.2 hPa 1.4 Km/h W 0.0 mm  15.7 °C 16.4 °C
Brugine2 (PD) 18/10/18 01.25 14.6 °C 94 % 13.6 °C 1017.3 hPa 0.0 Km/h NE 0.0 mm  14.6 °C 15.2 °C
Carceri (PD) 18/10/18 01.15 16.1 °C 93 % 15.0 °C 1016.5 hPa 0.0 Km/h NW 0.0 mm  15.7 °C 16.1 °C
Cartigliano (VI) 18/10/18 01.28 14.4 °C 81 % 11.2 °C 1016.3 hPa 0.0 Km/h ENE 0.0 mm  14.4 °C 15.7 °C
Casotto (VI) 18/10/18 01.13 13.8 °C 88 % 11.7 °C 1016.5 hPa 0.0 Km/h SE 0.0 mm  13.7 °C 13.8 °C
Castel d'Azzano (VR) 17/10/18 22.45 16.2 °C 82 % 13.1 °C 1045.2 hPa 0.0 Km/h --- 0.0 mm  15.6 °C 23.1 °C
Castelfranco Veneto (TV) 18/10/18 01.20 15.9 °C 92 % 14.6 °C 1017.6 hPa 0.0 Km/h --- 0.0 mm  15.9 °C 16.8 °C
Castelgomberto (VI) 17/10/18 08.01 15.1 °C 85 % 12.6 °C 1018.3 hPa 2.4 Km/h NNE 0.0 mm  15.0 °C 15.8 °C
Cavazzale (VI) 17/10/18 22.45 17.1 °C 83 % 14.1 °C 1018.1 hPa 0.0 Km/h --- 0.0 mm  14.8 °C 21.7 °C
Cerea (VR) 17/10/18 23.25 15.8 °C 91 % 14.4 °C 1018.2 hPa 0.0 Km/h --- 0.8 mm  15.2 °C 22.6 °C
Cerea2 (VR) 18/10/18 01.15 16.3 °C 80 % 12.8 °C 1018.7 hPa 1.6 Km/h NW 0.0 mm  16.3 °C 16.3 °C
Cima Grappa (TV) 18/10/18 01.29 8.3 °C 99 % 8.1 °C 1020.3 hPa 0.0 Km/h NNE 0.0 mm  8.3 °C 8.4 °C
Cismon del Grappa loc. Corlo (VI) 18/10/18 01.19 13.3 °C 89 % 11.5 °C 1019.9 hPa 3.9 Km/h NNE 0.0 mm  13.1 °C 13.6 °C
Cogollo del Cengio (VI) 18/10/18 01.26 14.8 °C 99 % 14.6 °C 1016.8 hPa 5.8 Km/h NW 0.0 mm  14.7 °C 15.0 °C
Cologna Veneta Sant'Andrea (VR) 18/10/18 01.20 15.4 °C 56 % 6.7 °C 1017.3 hPa 0.0 Km/h --- 0.0 mm  14.8 °C 15.4 °C
Colognola ai Colli (VR) 18/10/18 01.20 12.8 °C 92 % 11.6 °C 1017.6 hPa 0.0 Km/h --- 0.0 mm  12.8 °C 13.9 °C
Corrubio di S. Anna d'Alfaedo (VR) 18/10/18 01.25 12.9 °C 85 % 10.5 °C 1018.7 hPa 3.2 Km/h SSE 0.0 mm  12.7 °C 12.9 °C
Costa di Vittorio Veneto (TV) 18/10/18 01.19 17.1 °C 76 % 12.8 °C 1016.1 hPa 0.0 Km/h E 0.0 mm  17.1 °C 17.3 °C
Crespano del Grappa2 (TV) 14/10/18 19.29 22.6 °C 61 % 14.7 °C 1015.0 hPa 5.6 Km/h N 0.0 mm  22.6 °C 22.6 °C
Dossobuono (VR) 18/10/18 01.28 15.4 °C 84 % 12.8 °C 1018.9 hPa 0.0 Km/h NW 0.0 mm  15.4 °C 15.7 °C
Erbezzo Passo Fittanze (VR) 18/10/18 01.19 10.3 °C 84 % 7.7 °C 1019.9 hPa 0.0 Km/h NNW 0.0 mm  9.5 °C 10.3 °C
Falzè di Piave (TV) 17/10/18 20.20 16.3 °C 88 % 14.3 °C 1018.9 hPa 0.0 Km/h --- 0.2 mm  11.4 °C 20.8 °C
Farra di Soligo (TV) 18/10/18 01.29 15.2 °C 76 % 11.0 °C 1013.1 hPa 0.0 Km/h SW 0.0 mm  15.0 °C 15.5 °C
Feltre Celarda (BL) 18/10/18 01.28 12.6 °C 98 % 12.3 °C 1017.7 hPa 0.0 Km/h SW 0.0 mm  12.6 °C 12.9 °C
Ferrara di M.B. (VR) 18/10/18 01.15 11.5 °C 77 % 7.6 °C 1013.9 hPa 3.2 Km/h N 0.0 mm  9.7 °C 11.6 °C
Fumane Contrada La Ca (VR) 18/10/18 01.19 14.4 °C 83 % 11.5 °C 1020.2 hPa 0.0 Km/h W 0.0 mm  14.4 °C 14.9 °C
Gallio (VI) 18/10/18 01.15 10.1 °C 90 % 8.5 °C 1018.6 hPa 1.6 Km/h NNW 0.0 mm  9.7 °C 10.2 °C
Legnago (VR) 18/10/18 01.25 16.3 °C 93 % 15.2 °C 1017.5 hPa 0.0 Km/h --- 0.0 mm  16.1 °C 16.4 °C
Lendinara2 (RO) 18/10/18 01.19 15.2 °C 90 % 13.6 °C 1017.6 hPa 0.0 Km/h N 0.0 mm  15.2 °C 15.4 °C
Lugagnano (VR) 17/10/18 21.48 16.4 °C 85 % 13.9 °C 1017.0 hPa 0.0 Km/h SW 0.0 mm  15.4 °C 21.7 °C
Lusiana Sciessere (VI) 18/10/18 01.28 14.4 °C 76 % 10.2 °C 1019.9 hPa 0.0 Km/h ENE 0.0 mm  13.2 °C 14.4 °C
Marano Vicentino2 (VI) 18/10/18 01.25 15.5 °C 82 % 12.4 °C 1016.9 hPa 0.0 Km/h SSW 0.0 mm  15.4 °C 15.9 °C
Merlara (PD) 18/10/18 01.20 15.2 °C 87 % 13.0 °C 1016.7 hPa 3.2 Km/h NNW 0.0 mm  14.8 °C 15.2 °C
Mizzole (VR) 18/10/18 01.29 14.6 °C 86 % 12.3 °C 1017.8 hPa 2.5 Km/h NNE 0.0 mm  14.5 °C 14.9 °C
Molina (VR) 18/10/18 01.19 12.8 °C 82 % 9.8 °C 1020.3 hPa 1.2 Km/h N 0.0 mm  12.8 °C 13.0 °C
Monselice (PD) 18/10/18 01.24 16.3 °C 86 % 13.9 °C 1010.8 hPa 0.0 Km/h NW 0.0 mm  16.3 °C 16.5 °C
Montebello Vicentino loc. Selva (VI) 18/10/18 01.29 17.1 °C 60 % 9.3 °C 1017.9 hPa 6.3 Km/h NNE 0.0 mm  16.4 °C 17.1 °C
Montecchio Maggiore Sant'Urbano (VI) 18/10/18 01.16 15.9 °C 71 % 10.6 °C 1023.6 hPa 4.2 Km/h NW 0.0 mm  15.6 °C 16.1 °C
Montorio (VR) 18/10/18 01.19 14.8 °C 86 % 12.5 °C 1019.5 hPa 1.8 Km/h WNW 0.0 mm  14.6 °C 15.4 °C
Montorso Vicentino (VI) 18/10/18 01.29 15.4 °C 82 % 12.3 °C 1017.1 hPa 0.0 Km/h NW 0.0 mm  14.9 °C 15.4 °C
Onara extraurbana (PD) 16/10/18 19.26 17.6 °C 76 % 13.3 °C 1017.4 hPa 0.0 Km/h SSE 0.0 mm  11.3 °C 21.7 °C
Oppeano (VR) 14/10/18 21.05 18.2 °C 66 % 11.7 °C 1015.3 hPa 0.0 Km/h --- 0.0 mm  13.6 °C 24.1 °C
Pastrengo (VR) 18/10/18 01.19 15.6 °C 79 % 12.0 °C 1020.1 hPa 0.0 Km/h NW 0.0 mm  15.4 °C 15.6 °C
Pastrengo Corné (VR) 18/10/18 01.29 14.8 °C 83 % 11.9 °C 1016.2 hPa 0.0 Km/h ENE 0.0 mm  14.6 °C 15.2 °C
Pedemonte (VR) 18/10/18 01.20 14.1 °C 88 % 12.2 °C 1017.3 hPa 0.0 Km/h N 0.0 mm  14.1 °C 14.5 °C
Perarolo di Arcugnano (VI) 18/10/18 01.29 14.2 °C 80 % 10.8 °C 988.0 hPa 0.0 Km/h NNW 0.0 mm  14.1 °C 14.3 °C
Peschiera del Garda (VR) 18/10/18 01.20 14.9 °C 90 % 13.3 °C 1017.9 hPa 0.0 Km/h S 0.0 mm  14.9 °C 15.3 °C
Pian di Castagné (VR) 18/10/18 01.15 15.5 °C 78 % 11.7 °C 1017.5 hPa 0.0 Km/h ESE 0.0 mm  15.5 °C 15.7 °C
Pian di Castagné2 (VR) 18/10/18 01.19 14.4 °C 85 % 11.9 °C 1018.8 hPa 2.1 Km/h ENE 0.0 mm  14.4 °C 15.2 °C
Pojana Maggiore Cagnano (VI) 18/10/18 01.21 15.8 °C 94 % 14.8 °C 1015.0 hPa 0.0 Km/h 0.0 mm  14.9 °C 15.8 °C
Ponte San Nicolò (PD) 18/10/18 01.19 16.7 °C 85 % 14.2 °C 1017.0 hPa 1.6 Km/h NNW 0.0 mm  16.7 °C 16.8 °C
Rifugio Bocca di Selva (VR) 18/10/18 01.29 10.1 °C 88 % 8.2 °C 1018.0 hPa 17.7 Km/h ENE 0.0 mm  9.9 °C 10.2 °C
Rifugio Fiori del Baldo (VR) 18/10/18 00.55 7.9 °C 89 % 7.1 °C 1024.7 hPa 21.0 Km/h E 0.0 mm  7.8 °C 8.0 °C
Rifugio Primaneve (VR) 18/10/18 01.19 8.2 °C 95 % 7.5 °C 1018.7 hPa 6.4 Km/h NE 0.0 mm  8.0 °C 8.2 °C
Romano d'Ezzelino Fellette (VI) 18/10/18 01.29 14.5 °C 10 % -16.8 °C 1020.4 hPa 0.0 Km/h W 0.0 mm  14.4 °C 16.0 °C
Rosolina (RO) 18/10/18 01.15 16.0 °C 97 % 15.5 °C 1017.9 hPa 4.8 Km/h WNW 0.0 mm  15.9 °C 16.0 °C
S. Giovanni Ilarione2 (VR) 14/10/18 18.10 19.2 °C 64 % 12.2 °C 1017.4 hPa 1.6 Km/h WNW 0.0 mm  13.3 °C 22.9 °C
S. Giovanni Lupatoto (VR) 18/10/18 01.20 15.9 °C 86 % 13.6 °C 1018.7 hPa 0.0 Km/h --- 0.0 mm  15.9 °C 16.4 °C
S. Lorenzo di Vittorio Veneto (TV) 18/10/18 01.25 17.2 °C 72 % 12.1 °C 1017.8 hPa 8.0 Km/h N 0.0 mm  17.1 °C 17.4 °C
S. Maria di Zevio Loc. 3 Ponti (VR) 18/10/18 01.29 15.3 °C 88 % 13.3 °C 1019.1 hPa 0.0 Km/h N 0.0 mm  15.3 °C 16.0 °C
S. Maria Maddalena (RO) 18/10/18 01.25 16.1 °C 92 % 15.0 °C 1016.6 hPa 0.0 Km/h NW 0.0 mm  16.1 °C 17.1 °C
S. Martino Lupari (PD) 18/10/18 01.20 15.9 °C 89 % 14.1 °C 821.8 hPa 0.0 Km/h --- 0.0 mm  15.8 °C 16.8 °C
S. Zeno di Mont. Prada (VR) 18/10/18 01.20 9.6 °C 77 % 5.7 °C 1016.8 hPa 0.0 Km/h --- 0.0 mm  9.0 °C 9.6 °C
San Nazario (VI) 18/10/18 01.13 16.4 °C 72 % 11.3 °C 1017.2 hPa 2.6 Km/h N 0.0 mm  16.2 °C 16.4 °C
San Pietro di Rosà (VI) 18/10/18 01.29 15.6 °C 84 % 12.9 °C 1020.8 hPa 0.0 Km/h NW 0.0 mm  15.6 °C 17.2 °C
San Pietro in Cariano (VR) 18/10/18 01.19 14.4 °C 92 % 13.2 °C 1017.8 hPa 2.6 Km/h NE 0.0 mm  14.4 °C 15.7 °C
San Vito di Negrar (VR) 18/10/18 01.20 14.0 °C 89 % 12.2 °C 1019.2 hPa 0.0 Km/h N 0.0 mm  14.0 °C 15.2 °C
San Zeno di Mont. Loc. Castello (VR) 18/10/18 01.29 13.1 °C 78 % 9.4 °C 1016.9 hPa 0.0 Km/h S 0.0 mm  12.3 °C 13.1 °C
Santa Maria di Negrar (VR) 18/10/18 01.19 14.1 °C 87 % 12.0 °C 1018.8 hPa 0.0 Km/h WSW 0.0 mm  14.1 °C 15.1 °C
Sarcedo (VI) 18/10/18 01.28 14.9 °C 88 % 12.9 °C 1016.0 hPa 0.0 Km/h WNW 0.0 mm  14.9 °C 15.6 °C
Schio (VI) 18/10/18 01.05 16.2 °C 80 % 12.7 °C 1018.7 hPa 3.2 Km/h NW 0.0 mm  15.9 °C 16.2 °C
Schio Monte Magré (VI) 18/10/18 01.29 14.8 °C 87 % 12.7 °C 0.0 hPa 0.0 Km/h W 0.0 mm  14.3 °C 14.9 °C
Soave Borgo Bassano (VR) 18/10/18 01.25 15.2 °C 88 % 13.2 °C 1017.7 hPa 0.0 Km/h ENE 0.0 mm  14.9 °C 15.6 °C
Sona Loc. La Colombara (VR) 18/10/18 01.00 12.8 °C 95 % 11.7 °C 1014.4 hPa 0.0 Km/h SW 0.0 mm  12.8 °C 13.3 °C
Tombolo (PD) 18/10/18 01.29 16.6 °C 79 % 12.9 °C 1017.7 hPa 0.6 Km/h NNW 0.0 mm  16.5 °C 17.2 °C
Tregnago Loc. Centro (VR) 18/10/18 01.20 15.0 °C 82 % 11.9 °C 1011.6 hPa 3.2 Km/h NE 0.0 mm  15.0 °C 15.6 °C
Treviso (TV) 18/10/18 01.28 14.2 °C 95 % 13.4 °C 1016.6 hPa 0.0 Km/h SE 0.0 mm  14.2 °C 15.6 °C
Val Lastaro (VI) 18/10/18 01.25 11.4 °C 86 % 9.4 °C 1018.7 hPa 0.0 Km/h N 0.0 mm  11.4 °C 11.8 °C
Valdagno (VI) 18/10/18 01.29 14.7 °C 82 % 11.7 °C 1000.0 hPa 0.0 Km/h W 0.0 mm  14.7 °C 15.1 °C
Valdobbiadene San Pietro di Barbozza (TV) 18/10/18 01.25 17.4 °C 78 % 13.5 °C 1016.6 hPa 3.2 Km/h NNW 0.0 mm  17.2 °C 17.6 °C
Valli del Pasubio loc. Gisbenti (VI) 18/10/18 01.29 12.8 °C 92 % 11.5 °C 974.0 hPa 0.0 Km/h --- 0.0 mm  12.5 °C 12.9 °C
Vazzo Roveré Veronese (VR) 18/10/18 01.29 12.8 °C 77 % 8.9 °C 1015.0 hPa 1.6 Km/h ENE 0.0 mm  12.1 °C 13.3 °C
Verona Bgo Venezia (iz3sly) (VR) 18/10/18 01.20 14.3 °C 90 % 12.7 °C 1016.5 hPa 0.0 Km/h NW 0.0 mm  14.3 °C 14.6 °C
Verona Cadidavid2 (VR) 18/10/18 01.20 14.0 °C 82 % 11.0 °C 1016.7 hPa 0.0 Km/h SSE 0.0 mm  14.0 °C 14.8 °C
Vicenza Pecori Giraldi (VI) 18/10/18 01.15 16.1 °C 100 % 16.1 °C 1014.9 hPa 0.0 Km/h SW 0.0 mm  16.1 °C 17.1 °C
Vicenza S. Lazzaro (VI) 18/10/18 01.28 16.1 °C 83 % 13.3 °C 1016.5 hPa 0.0 Km/h S 0.0 mm  16.1 °C 17.1 °C
Vicenza San Gaetano (VI) 17/10/18 22.55 17.0 °C 86 % 14.6 °C 1018.1 hPa 0.0 Km/h NW 0.2 mm  15.2 °C 21.6 °C
Vidor (TV) 16/10/18 20.35 13.8 °C 82 % 10.7 °C 1019.2 hPa 0.0 Km/h W 0.0 mm  9.8 °C 20.9 °C
Vigardolo (VI) 18/10/18 01.19 16.0 °C 82 % 12.9 °C 1016.4 hPa 0.0 Km/h N 0.0 mm  16.0 °C 16.7 °C
Vigasio (VR) 18/10/18 01.20 16.2 °C 87 % 14.1 °C 1015.8 hPa 0.0 Km/h WSW 0.0 mm  16.2 °C 16.8 °C
Villabartolomea (VR) 18/10/18 01.15 16.1 °C 88 % 14.4 °C 1016.5 hPa 0.0 Km/h W 0.0 mm  15.9 °C 16.1 °C
Vittorio Veneto Parco Fenderl (TV) 18/10/18 00.20 18.1 °C 70 % 12.6 °C 1018.5 hPa 11.3 Km/h NE 0.0 mm  18.1 °C 18.2 °C
Volpago del Montello (TV) 18/10/18 01.15 14.8 °C 91 % 13.4 °C 1017.2 hPa 0.0 Km/h SSE 0.0 mm  14.8 °C 16.1 °C
 
 
 
(*) = Precipitazioni nelle ultime 24h.
Dati non aggiornati nell'ultima ora.
   
In collaborazione con:
 
Top! Top!